< < Back
Terminal Aerodrome Forecast


Current Version              Previous Versions:   1  2  3  4  5  6  7  8  9  

Terminal Aerodrome Forecast

243
FTUS42 KCHS 251700
TAFCHS
TAF
KCHS 251739Z 2518/2618 22010KT P6SM VCTS SCT040CB
      TEMPO 2518/2520 VRB15G25KT 3SM TSRA BR BKN025CB
     FM260000 22005KT P6SM SCT050 SCT100
      TEMPO 2609/2612 5SM BR
     FM261300 27006KT P6SM SCT045 SCT250=

Latest METAR

856
SAUS80 KWBC 252300 RRB
MTRCHS
METAR KCHS 252256Z 20005KT 10SM FEW025 SCT110 BKN150 24/22 A2999 RMK AO2
SLP154 CB DSNT SW-NW T02390217


USA.gov is the U.S. government's official web portal to all federal, state and local government web resources and services.